createdAt,value
2018-04-15T00:01:34.866Z,100143.31
2018-04-15T00:04:02.251Z,100142.27
2018-04-15T00:06:29.642Z,100137.42
2018-04-15T00:08:57.029Z,100142.08
2018-04-15T00:11:24.483Z,100143.09
2018-04-15T00:13:51.882Z,100136.63
2018-04-15T00:16:19.319Z,100129.39
2018-04-15T00:18:46.700Z,100127.16
2018-04-15T00:21:14.090Z,100121.78
2018-04-15T00:23:41.478Z,100118.38
2018-04-15T00:26:08.863Z,100122.08
2018-04-15T00:28:36.243Z,100116.84
2018-04-15T00:31:03.655Z,100116.14
2018-04-15T00:33:31.050Z,100114.03
2018-04-15T00:35:58.441Z,100117.95
2018-04-15T00:38:25.828Z,100120.23
2018-04-15T00:40:53.190Z,100123.27
2018-04-15T00:43:20.568Z,100118.38
2018-04-15T00:45:47.955Z,100115.81
2018-04-15T00:48:15.338Z,100113.00
2018-04-15T00:50:42.730Z,100114.85
2018-04-15T00:53:10.122Z,100121.76
2018-04-15T00:55:38.332Z,100118.97
2018-04-15T00:58:05.734Z,100122.33
2018-04-15T01:00:33.110Z,100121.36
2018-04-15T01:03:00.548Z,100112.50
2018-04-15T01:05:27.922Z,100112.64
2018-04-15T01:07:55.323Z,100109.41
2018-04-15T01:10:22.729Z,100105.32
2018-04-15T01:12:50.110Z,100109.61
2018-04-15T01:15:17.515Z,100112.58
2018-04-15T01:17:44.909Z,100110.77
2018-04-15T01:20:12.293Z,100113.24
2018-04-15T01:22:39.687Z,100110.38
2018-04-15T01:25:07.091Z,100109.25
2018-04-15T01:27:34.477Z,100109.17
2018-04-15T01:30:01.902Z,100116.11
2018-04-15T01:32:29.299Z,100108.59
2018-04-15T01:34:56.689Z,100105.11
2018-04-15T01:37:24.058Z,100096.73
2018-04-15T01:39:51.451Z,100095.98
2018-04-15T01:42:18.834Z,100100.14
2018-04-15T01:44:46.211Z,100101.06
2018-04-15T01:47:13.610Z,100100.38
2018-04-15T01:49:41.026Z,100101.45
2018-04-15T01:52:08.486Z,100100.39
2018-04-15T01:54:35.882Z,100099.61
2018-04-15T01:57:03.295Z,100097.59
2018-04-15T01:59:30.698Z,100094.59
2018-04-15T02:01:58.299Z,100091.63
2018-04-15T02:04:25.678Z,100093.38
2018-04-15T02:06:53.084Z,100092.48
2018-04-15T02:09:20.573Z,100098.20
2018-04-15T02:11:48.031Z,100099.34
2018-04-15T02:14:15.407Z,100096.43
2018-04-15T02:16:42.842Z,100092.08
2018-04-15T02:19:10.189Z,100090.14
2018-04-15T02:21:37.663Z,100084.86
2018-04-15T02:24:05.088Z,100085.39
2018-04-15T02:26:32.458Z,100091.61
2018-04-15T02:29:00.014Z,100080.42
2018-04-15T02:31:27.386Z,100087.04
2018-04-15T02:33:54.807Z,100089.14
2018-04-15T02:36:22.210Z,100090.30
2018-04-15T02:38:49.595Z,100088.11
2018-04-15T02:41:17.002Z,100086.74
2018-04-15T02:43:44.387Z,100090.11
2018-04-15T02:46:11.769Z,100086.03
2018-04-15T02:48:39.155Z,100087.08
2018-04-15T02:51:06.612Z,100077.33
2018-04-15T02:53:34.183Z,100082.75
2018-04-15T02:56:01.550Z,100089.41
2018-04-15T02:58:28.951Z,100089.25
2018-04-15T03:00:56.374Z,100086.81
2018-04-15T03:03:23.753Z,100086.74
2018-04-15T03:05:51.234Z,100086.71
2018-04-15T03:08:18.604Z,100106.63
2018-04-15T03:10:46.006Z,100095.16
2018-04-15T03:13:13.415Z,100098.27
2018-04-15T03:15:40.784Z,100096.59
2018-04-15T03:18:08.174Z,100099.99
2018-04-15T03:20:36.575Z,100102.65
2018-04-15T03:23:03.950Z,100101.72
2018-04-15T03:25:31.355Z,100097.83
2018-04-15T03:27:58.759Z,100098.69
2018-04-15T03:30:26.174Z,100092.58
2018-04-15T03:32:53.632Z,100099.00
2018-04-15T03:35:21.036Z,100093.98
2018-04-15T03:37:48.432Z,100092.17
2018-04-15T03:40:15.807Z,100087.36
2018-04-15T03:42:43.200Z,100099.84
2018-04-15T03:45:10.567Z,100092.55
2018-04-15T03:47:37.955Z,100090.58
2018-04-15T03:50:05.342Z,100086.98
2018-04-15T03:52:32.721Z,100083.88
2018-04-15T03:55:00.146Z,100082.91
2018-04-15T03:57:27.531Z,100076.23
2018-04-15T03:59:54.903Z,100070.13
2018-04-15T04:02:22.291Z,100070.91
2018-04-15T04:04:49.730Z,100069.05
2018-04-15T04:07:17.252Z,100069.39
2018-04-15T04:09:44.663Z,100073.59
2018-04-15T04:12:12.065Z,100077.52
2018-04-15T04:14:39.522Z,100085.44
2018-04-15T04:17:06.908Z,100092.53
2018-04-15T04:19:46.023Z,100090.00
2018-04-15T04:22:25.204Z,100092.22
2018-04-15T04:38:19.916Z,100072.58
2018-04-15T04:40:47.300Z,100078.97
2018-04-15T04:43:14.690Z,100073.03
2018-04-15T04:45:42.083Z,100078.83
2018-04-15T04:48:09.468Z,100071.08
2018-04-15T04:50:36.855Z,100070.56
2018-04-15T04:53:04.255Z,100072.41
2018-04-15T04:55:31.639Z,100078.57
2018-04-15T04:57:59.019Z,100077.87
2018-04-15T05:00:26.422Z,100083.88
2018-04-15T05:02:53.886Z,100082.17
2018-04-15T05:05:21.356Z,100080.89
2018-04-15T05:07:48.708Z,100082.48
2018-04-15T05:10:16.101Z,100079.15
2018-04-15T05:12:43.474Z,100080.73
2018-04-15T05:15:10.896Z,100075.68
2018-04-15T05:17:38.297Z,100084.61
2018-04-15T05:20:05.701Z,100082.23
2018-04-15T05:22:33.070Z,100073.43
2018-04-15T05:25:01.154Z,100083.57
2018-04-15T05:27:28.540Z,100084.80
2018-04-15T05:29:55.994Z,100081.44
2018-04-15T05:32:23.381Z,100080.43
2018-04-15T05:34:50.774Z,100076.91
2018-04-15T05:37:18.296Z,100081.61
2018-04-15T05:39:45.692Z,100072.55
2018-04-15T05:42:13.072Z,100078.16
2018-04-15T05:44:40.761Z,100075.45
2018-04-15T05:47:08.158Z,100075.78
2018-04-15T05:49:35.661Z,100074.59
2018-04-15T05:52:03.239Z,100067.33
2018-04-15T05:54:30.614Z,100067.33
2018-04-15T05:56:57.998Z,100067.97
2018-04-15T05:59:25.387Z,100066.61
2018-04-15T06:01:52.795Z,100059.96
2018-04-15T06:04:20.168Z,100054.08
2018-04-15T06:06:47.667Z,100051.30
2018-04-15T06:09:15.107Z,100058.86
2018-04-15T06:11:42.485Z,100053.93
2018-04-15T06:14:09.869Z,100048.05
2018-04-15T06:16:37.252Z,100046.19
2018-04-15T06:19:04.732Z,100045.16
2018-04-15T06:21:32.247Z,100041.76
2018-04-15T06:23:59.684Z,100041.16
2018-04-15T06:26:27.288Z,100038.72
2018-04-15T06:28:54.679Z,100038.64
2018-04-15T06:31:22.053Z,100036.92
2018-04-15T06:33:49.551Z,100040.73
2018-04-15T06:36:16.935Z,100038.25
2018-04-15T06:38:44.526Z,100036.95
2018-04-15T06:41:11.913Z,100033.92
2018-04-15T06:43:39.303Z,100035.25
2018-04-15T06:46:06.675Z,100041.97
2018-04-15T06:48:34.060Z,100036.11
2018-04-15T06:51:01.481Z,100041.72
2018-04-15T06:53:28.856Z,100037.72
2018-04-15T06:55:56.262Z,100037.83
2018-04-15T06:58:23.658Z,100040.16
2018-04-15T07:00:51.035Z,100041.44
2018-04-15T07:03:18.416Z,100029.51
2018-04-15T07:05:45.833Z,100030.50
2018-04-15T07:08:13.200Z,100027.02
2018-04-15T07:10:40.614Z,100032.27
2018-04-15T07:13:07.981Z,100032.66
2018-04-15T07:15:35.368Z,100028.63
2018-04-15T07:18:02.755Z,100031.89
2018-04-15T07:20:30.176Z,100027.55
2018-04-15T07:22:57.575Z,100024.67
2018-04-15T07:25:24.994Z,100030.25
2018-04-15T07:27:52.391Z,100032.02
2018-04-15T07:30:19.768Z,100025.47
2018-04-15T07:32:47.159Z,100023.32
2018-04-15T07:35:14.538Z,100025.02
2018-04-15T07:37:42.916Z,100017.02
2018-04-15T07:40:10.298Z,100021.76
2018-04-15T07:42:37.684Z,100027.37
2018-04-15T07:45:05.088Z,100031.52
2018-04-15T07:47:32.473Z,100020.98
2018-04-15T07:49:59.849Z,100022.06
2018-04-15T07:52:27.462Z,100017.01
2018-04-15T07:54:54.849Z,100014.98
2018-04-15T07:57:22.510Z,100014.02
2018-04-15T07:59:49.890Z,100005.97
2018-04-15T08:02:17.323Z,100005.28
2018-04-15T08:04:44.682Z,100004.08
2018-04-15T08:07:12.050Z,100006.92
2018-04-15T08:09:39.757Z,100003.77
2018-04-15T08:12:07.151Z,100000.28
2018-04-15T08:14:34.546Z,100003.50
2018-04-15T08:17:01.933Z,100002.96
2018-04-15T08:19:29.336Z,100002.04
2018-04-15T08:21:56.731Z,100004.75
2018-04-15T08:24:24.124Z,100005.00
2018-04-15T08:26:51.511Z,99999.78
2018-04-15T08:29:18.894Z,99998.15
2018-04-15T08:31:46.287Z,99997.42
2018-04-15T08:34:13.700Z,99993.13
2018-04-15T08:36:41.110Z,99991.64
2018-04-15T08:39:08.468Z,99982.63
2018-04-15T08:41:35.848Z,99986.92
2018-04-15T08:44:03.222Z,99976.49
2018-04-15T08:46:30.616Z,99973.50
2018-04-15T08:48:58.014Z,99971.38
2018-04-15T08:51:25.420Z,99974.28
2018-04-15T08:53:52.899Z,99964.45
2018-04-15T08:56:20.294Z,99965.30
2018-04-15T08:58:47.680Z,99958.23
2018-04-15T09:01:15.088Z,99950.13
2018-04-15T09:03:42.451Z,99948.88
2018-04-15T09:06:09.875Z,99948.16
2018-04-15T09:08:37.396Z,99946.38
2018-04-15T09:11:04.771Z,99949.57
2018-04-15T09:13:32.138Z,99940.20
2018-04-15T09:15:59.527Z,99943.56
2018-04-15T09:18:26.951Z,99944.06
2018-04-15T09:20:54.335Z,99938.88
2018-04-15T09:23:21.732Z,99938.48
2018-04-15T09:25:49.115Z,99934.28
2018-04-15T09:28:16.535Z,99935.44
2018-04-15T09:30:49.430Z,99924.80
2018-04-15T09:33:16.828Z,99924.93
2018-04-15T09:35:44.278Z,99921.49
2018-04-15T09:38:11.677Z,99919.88
2018-04-15T09:40:39.054Z,99922.00
2018-04-15T09:43:06.456Z,99919.42
2018-04-15T09:45:34.905Z,99912.61
2018-04-15T09:48:02.287Z,99913.06
2018-04-15T09:50:29.678Z,99915.22
2018-04-15T09:52:57.655Z,99914.67
2018-04-15T09:55:25.043Z,99909.17
2018-04-15T09:57:52.420Z,99907.13
2018-04-15T10:00:19.803Z,99910.06
2018-04-15T10:02:47.183Z,99903.63
2018-04-15T10:05:14.567Z,99896.38
2018-04-15T10:07:41.976Z,99898.98
2018-04-15T10:10:09.364Z,99898.54
2018-04-15T10:12:36.887Z,99897.25
2018-04-15T10:15:04.331Z,99894.23
2018-04-15T10:17:31.699Z,99894.64
2018-04-15T10:19:59.148Z,99895.52
2018-04-15T10:22:26.524Z,99892.06
2018-04-15T10:24:53.911Z,99891.20
2018-04-15T10:27:21.302Z,99891.22
2018-04-15T10:29:48.708Z,99884.32
2018-04-15T10:32:16.099Z,99883.45
2018-04-15T10:34:43.535Z,99886.03
2018-04-15T10:37:15.362Z,99880.00
2018-04-15T10:39:49.467Z,99886.02
2018-04-15T10:42:17.785Z,99886.48
2018-04-15T10:44:45.238Z,99883.00
2018-04-15T10:47:12.611Z,99884.75
2018-04-15T10:49:40.012Z,99879.14
2018-04-15T10:52:07.431Z,99875.69
2018-04-15T10:54:34.842Z,99868.80
2018-04-15T10:57:02.227Z,99863.18
2018-04-15T10:59:29.595Z,99858.80
2018-04-15T11:01:56.977Z,99853.03
2018-04-15T11:04:24.412Z,99848.65
2018-04-15T11:06:51.887Z,99845.97
2018-04-15T11:09:19.251Z,99843.20
2018-04-15T11:11:46.615Z,99846.59
2018-04-15T11:14:14.019Z,99846.56
2018-04-15T11:16:41.395Z,99841.63
2018-04-15T11:19:08.776Z,99829.20
2018-04-15T11:21:36.231Z,99831.56
2018-04-15T11:24:03.626Z,99825.36
2018-04-15T11:26:31.035Z,99819.44
2018-04-15T11:28:58.520Z,99818.22
2018-04-15T11:31:25.842Z,99818.50
2018-04-15T11:33:53.600Z,99816.28
2018-04-15T11:36:20.996Z,99816.55
2018-04-15T11:38:51.065Z,99803.51
2018-04-15T11:41:18.580Z,99802.50
2018-04-15T11:43:46.491Z,99804.34
2018-04-15T11:46:13.883Z,99796.52
2018-04-15T11:48:41.296Z,99804.89
2018-04-15T11:51:08.683Z,99803.48
2018-04-15T11:53:36.047Z,99796.19
2018-04-15T11:56:03.460Z,99791.30
2018-04-15T11:58:30.889Z,99793.17
2018-04-15T12:00:58.299Z,99782.61
2018-04-15T12:03:25.750Z,99780.42
2018-04-15T12:05:53.127Z,99775.57
2018-04-15T12:08:20.520Z,99770.45
2018-04-15T12:10:47.986Z,99770.33
2018-04-15T12:13:15.485Z,99780.30
2018-04-15T12:15:42.893Z,99783.07
2018-04-15T12:18:10.315Z,99768.59
2018-04-15T12:20:37.783Z,99771.48
2018-04-15T12:23:05.173Z,99761.73
2018-04-15T12:25:32.560Z,99757.29
2018-04-15T12:27:59.934Z,99761.04
2018-04-15T12:30:27.332Z,99757.70
2018-04-15T12:32:54.714Z,99763.47
2018-04-15T12:35:22.120Z,99755.50
2018-04-15T12:37:49.529Z,99753.17
2018-04-15T12:40:16.912Z,99759.28
2018-04-15T12:42:44.363Z,99746.30
2018-04-15T12:45:11.729Z,99748.81
2018-04-15T12:47:39.135Z,99739.52
2018-04-15T12:50:06.518Z,99743.27
2018-04-15T12:52:33.916Z,99731.77
2018-04-15T12:55:01.304Z,99732.22
2018-04-15T12:57:28.692Z,99731.81
2018-04-15T12:59:56.079Z,99731.23
2018-04-15T13:02:23.462Z,99727.19
2018-04-15T13:04:50.834Z,99721.70
2018-04-15T13:07:18.209Z,99715.09
2018-04-15T13:09:45.604Z,99711.76
2018-04-15T13:12:13.247Z,99716.69
2018-04-15T13:14:40.608Z,99705.45
2018-04-15T13:17:07.992Z,99688.52
2018-04-15T13:19:35.374Z,99688.44
2018-04-15T13:22:03.186Z,99691.29
2018-04-15T13:24:30.572Z,99679.98
2018-04-15T13:39:45.863Z,99665.61
2018-04-15T13:42:13.282Z,99657.98
2018-04-15T13:44:40.689Z,99661.03
2018-04-15T13:47:08.080Z,99653.31
2018-04-15T13:49:35.574Z,99648.47
2018-04-15T13:52:02.975Z,99646.05
2018-04-15T13:54:30.438Z,99648.13
2018-04-15T13:56:57.812Z,99639.84
2018-04-15T13:59:25.212Z,99637.44
2018-04-15T14:01:52.598Z,99632.77
2018-04-15T14:04:20.018Z,99627.23
2018-04-15T14:06:47.451Z,99620.81
2018-04-15T14:09:14.823Z,99621.86
2018-04-15T14:11:42.279Z,99618.51
2018-04-15T14:14:09.674Z,99616.30
2018-04-15T14:16:37.053Z,99607.63
2018-04-15T14:19:04.454Z,99608.73
2018-04-15T14:21:31.828Z,99597.66
2018-04-15T14:24:01.465Z,99598.05
2018-04-15T14:26:29.616Z,99609.80
2018-04-15T14:28:57.037Z,99601.66
2018-04-15T14:31:24.425Z,99592.07
2018-04-15T14:33:51.808Z,99579.90
2018-04-15T14:36:19.195Z,99582.63
2018-04-15T14:38:52.688Z,99583.02
2018-04-15T14:41:23.659Z,99580.47
2018-04-15T14:43:51.225Z,99587.05
2018-04-15T14:46:18.613Z,99594.14
2018-04-15T14:48:46.268Z,99591.31
2018-04-15T14:51:13.639Z,99596.11
2018-04-15T14:53:41.022Z,99584.88
2018-04-15T14:56:08.559Z,99583.71
2018-04-15T14:58:35.946Z,99582.13
2018-04-15T15:01:03.398Z,99585.41
2018-04-15T15:03:30.930Z,99580.03
2018-04-15T15:05:58.411Z,99575.61
2018-04-15T15:08:25.833Z,99572.95
2018-04-15T15:10:53.239Z,99578.10
2018-04-15T15:13:23.371Z,99568.77
2018-04-15T15:15:53.180Z,99568.55
2018-04-15T15:18:20.693Z,99570.94
2018-04-15T15:20:48.081Z,99570.56
2018-04-15T15:23:15.460Z,99574.67
2018-04-15T15:25:42.888Z,99566.87
2018-04-15T15:28:10.331Z,99565.89
2018-04-15T15:30:37.699Z,99569.41
2018-04-15T15:33:05.141Z,99569.45
2018-04-15T15:35:32.548Z,99564.24
2018-04-15T15:37:59.940Z,99562.69
2018-04-15T15:40:27.575Z,99564.05
2018-04-15T15:42:54.952Z,99557.89
2018-04-15T15:45:22.432Z,99559.37
2018-04-15T15:47:49.843Z,99553.77
2018-04-15T15:50:17.253Z,99552.77
2018-04-15T15:52:44.633Z,99553.11
2018-04-15T15:55:12.079Z,99557.91
2018-04-15T15:57:39.513Z,99561.69
2018-04-15T16:00:07.831Z,99557.79
2018-04-15T16:02:35.315Z,99560.59
2018-04-15T16:05:02.688Z,99559.97
2018-04-15T16:07:30.086Z,99559.59
2018-04-15T16:09:57.467Z,99570.21
2018-04-15T16:12:24.949Z,99567.14
2018-04-15T16:14:52.319Z,99572.91
2018-04-15T16:17:19.884Z,99568.39
2018-04-15T16:19:47.291Z,99570.47
2018-04-15T16:22:14.785Z,99569.27
2018-04-15T16:24:42.171Z,99569.53
2018-04-15T16:27:09.665Z,99566.68
2018-04-15T16:29:37.064Z,99570.44
2018-04-15T16:32:05.462Z,99574.47
2018-04-15T16:34:32.842Z,99578.83
2018-04-15T16:37:00.240Z,99577.55
2018-04-15T16:39:27.631Z,99573.73
2018-04-15T16:41:55.004Z,99573.33
2018-04-15T16:44:22.406Z,99570.50
2018-04-15T16:46:49.800Z,99578.02
2018-04-15T16:49:17.191Z,99576.14
2018-04-15T16:51:44.569Z,99576.13
2018-04-15T16:54:11.993Z,99570.38
2018-04-15T16:56:39.372Z,99569.02
2018-04-15T16:59:06.980Z,99577.09
2018-04-15T17:01:34.383Z,99576.05
2018-04-15T17:04:01.756Z,99573.19
2018-04-15T17:06:29.152Z,99570.27
2018-04-15T17:08:56.534Z,99567.14
2018-04-15T17:11:23.915Z,99569.03
2018-04-15T17:13:51.315Z,99571.88
2018-04-15T17:16:18.690Z,99569.94
2018-04-15T17:18:46.095Z,99576.20
2018-04-15T17:21:13.526Z,99568.98
2018-04-15T17:23:40.888Z,99569.55
2018-04-15T17:26:08.257Z,99568.95
2018-04-15T17:28:35.740Z,99564.32
2018-04-15T17:31:03.160Z,99569.81
2018-04-15T17:33:30.604Z,99570.02
2018-04-15T17:35:57.984Z,99568.15
2018-04-15T17:38:25.375Z,99567.02
2018-04-15T17:40:52.836Z,99571.95
2018-04-15T17:43:20.199Z,99573.84
2018-04-15T17:45:47.657Z,99574.63
2018-04-15T17:48:15.253Z,99578.86
2018-04-15T17:50:42.669Z,99580.19
2018-04-15T17:53:10.097Z,99574.70
2018-04-15T17:55:37.525Z,99579.55
2018-04-15T17:58:04.916Z,99585.67
2018-04-15T18:00:32.328Z,99586.14
2018-04-15T18:02:59.781Z,99598.25
2018-04-15T18:05:27.189Z,99602.66
2018-04-15T18:07:54.600Z,99599.02
2018-04-15T18:10:22.011Z,99604.11
2018-04-15T18:12:49.440Z,99606.16
2018-04-15T18:15:16.823Z,99610.17
2018-04-15T18:17:44.211Z,99618.21
2018-04-15T18:20:11.632Z,99624.53
2018-04-15T18:22:39.022Z,99629.41
2018-04-15T18:25:06.512Z,99639.40
2018-04-15T18:27:33.899Z,99636.75
2018-04-15T18:30:01.302Z,99641.97
2018-04-15T18:32:28.749Z,99645.95
2018-04-15T18:34:56.180Z,99644.45
2018-04-15T18:37:23.574Z,99648.30
2018-04-15T18:39:51.013Z,99647.78
2018-04-15T18:42:18.432Z,99649.20
2018-04-15T18:44:45.875Z,99652.23
2018-04-15T18:47:13.234Z,99653.45
2018-04-15T18:49:40.624Z,99649.17
2018-04-15T18:52:08.138Z,99653.58
2018-04-15T18:54:35.532Z,99648.39
2018-04-15T18:57:02.922Z,99647.96
2018-04-15T18:59:30.303Z,99656.61
2018-04-15T19:01:57.708Z,99656.67
2018-04-15T19:04:25.099Z,99656.75
2018-04-15T19:06:52.506Z,99652.47
2018-04-15T19:09:19.906Z,99657.17
2018-04-15T19:11:47.333Z,99658.05
2018-04-15T19:14:14.789Z,99655.92
2018-04-15T19:16:42.175Z,99660.77
2018-04-15T19:19:09.562Z,99655.98
2018-04-15T19:21:36.940Z,99655.05
2018-04-15T19:24:04.335Z,99658.14
2018-04-15T19:26:31.725Z,99652.91
2018-04-15T19:28:59.104Z,99651.48
2018-04-15T19:31:27.440Z,99649.50
2018-04-15T19:33:54.807Z,99653.73
2018-04-15T19:36:22.216Z,99657.69
2018-04-15T19:38:49.875Z,99661.52
2018-04-15T19:41:17.358Z,99662.02
2018-04-15T19:43:44.789Z,99667.63
2018-04-15T19:46:12.206Z,99673.24
2018-04-15T19:48:39.658Z,99674.13
2018-04-15T19:51:07.079Z,99675.52
2018-04-15T19:53:34.480Z,99680.23
2018-04-15T19:56:01.862Z,99674.64
2018-04-15T19:58:29.339Z,99680.70
2018-04-15T20:00:56.715Z,99672.97
2018-04-15T20:03:25.139Z,99678.19
2018-04-15T20:05:52.551Z,99673.59
2018-04-15T20:08:20.022Z,99673.21
2018-04-15T20:10:47.419Z,99676.66
2018-04-15T20:13:14.797Z,99682.73
2018-04-15T20:15:42.230Z,99673.34
2018-04-15T20:18:09.629Z,99677.14
2018-04-15T20:20:37.066Z,99674.63
2018-04-15T20:23:04.439Z,99675.14
2018-04-15T20:25:31.852Z,99679.55
2018-04-15T20:27:59.217Z,99681.22
2018-04-15T20:30:26.612Z,99679.95
2018-04-15T20:32:54.011Z,99684.27
2018-04-15T20:35:21.416Z,99679.06
2018-04-15T20:37:48.788Z,99682.53
2018-04-15T20:40:16.180Z,99683.86
2018-04-15T20:42:44.105Z,99687.78
2018-04-15T20:45:11.491Z,99682.58
2018-04-15T20:47:38.879Z,99681.72
2018-04-15T20:50:06.252Z,99691.21
2018-04-15T20:52:33.663Z,99688.17
2018-04-15T20:55:01.043Z,99683.42
2018-04-15T20:57:28.465Z,99691.62
2018-04-15T20:59:55.979Z,99694.98
2018-04-15T21:02:23.433Z,99690.66
2018-04-15T21:04:52.721Z,99690.27
2018-04-15T21:07:20.108Z,99694.09
2018-04-15T21:09:47.522Z,99700.16
2018-04-15T21:12:14.931Z,99697.52
2018-04-15T21:14:42.276Z,99706.44
2018-04-15T21:17:09.782Z,99705.28
2018-04-15T21:19:37.251Z,99707.83
2018-04-15T21:22:04.648Z,99710.84
2018-04-15T21:24:32.098Z,99720.18
2018-04-15T21:26:59.506Z,99717.66
2018-04-15T21:29:27.043Z,99726.25
2018-04-15T21:31:54.426Z,99733.95
2018-04-15T21:34:21.835Z,99738.73
2018-04-15T21:36:49.296Z,99748.56
2018-04-15T21:39:17.770Z,99751.53
2018-04-15T21:41:45.856Z,99751.61
2018-04-15T21:44:13.245Z,99750.30
2018-04-15T21:46:40.870Z,99753.78
2018-04-15T21:49:08.257Z,99748.37
2018-04-15T21:51:35.651Z,99759.05
2018-04-15T21:54:03.080Z,99761.42
2018-04-15T21:56:30.476Z,99755.23
2018-04-15T21:58:57.868Z,99751.60
2018-04-15T22:01:25.284Z,99768.98
2018-04-15T22:03:52.677Z,99754.62
2018-04-15T22:06:20.153Z,99743.68
2018-04-15T22:08:47.541Z,99742.50
2018-04-15T22:11:14.953Z,99734.28
2018-04-15T22:13:42.385Z,99736.05
2018-04-15T22:16:09.907Z,99733.14
2018-04-15T22:18:37.273Z,99719.45
2018-04-15T22:21:04.665Z,99713.85
2018-04-15T22:23:32.239Z,99709.55
2018-04-15T22:25:59.656Z,99700.17
2018-04-15T22:28:27.067Z,99698.88
2018-04-15T22:30:54.454Z,99703.81
2018-04-15T22:33:21.859Z,99692.65
2018-04-15T22:35:49.253Z,99691.01
2018-04-15T22:38:16.730Z,99684.12
2018-04-15T22:40:44.095Z,99678.48
2018-04-15T22:43:11.479Z,99681.84
2018-04-15T22:45:38.874Z,99679.20
2018-04-15T22:48:06.269Z,99670.74
2018-04-15T22:50:37.604Z,99678.33
2018-04-15T22:53:04.982Z,99676.27
2018-04-15T22:55:32.800Z,99672.45
2018-04-15T22:58:00.249Z,99669.89
2018-04-15T23:00:27.712Z,99667.77
2018-04-15T23:02:55.112Z,99666.95
2018-04-15T23:05:22.489Z,99665.17
2018-04-15T23:07:50.438Z,99672.09
2018-04-15T23:10:18.148Z,99667.38
2018-04-15T23:12:45.658Z,99665.57
2018-04-15T23:15:13.038Z,99665.66
2018-04-15T23:17:40.421Z,99672.95
2018-04-15T23:20:07.950Z,99669.45
2018-04-15T23:22:35.415Z,99671.24
2018-04-15T23:25:02.830Z,99673.28
2018-04-15T23:27:30.276Z,99687.05
2018-04-15T23:29:57.660Z,99684.98
2018-04-15T23:32:25.074Z,99689.70
2018-04-15T23:34:52.453Z,99696.47
2018-04-15T23:37:19.815Z,99691.77
2018-04-15T23:39:47.212Z,99687.55
2018-04-15T23:42:14.608Z,99693.10
2018-04-15T23:44:41.985Z,99702.98
2018-04-15T23:47:09.363Z,99697.34
2018-04-15T23:49:37.025Z,99696.59
2018-04-15T23:52:04.585Z,99702.98
2018-04-15T23:54:31.996Z,99699.95
2018-04-15T23:56:59.527Z,99696.47
2018-04-15T23:59:27.017Z,99691.45
